sensor_id;sensor_type;location;lat;lon;timestamp;P1;durP1;ratioP1;P2;durP2;ratioP2
61356;SDS011;47227;46.752;23.576;2022-09-09T00:03:12;14.50;;;8.20;;
61356;SDS011;47227;46.752;23.576;2022-09-09T00:06:31;10.90;;;7.50;;
61356;SDS011;47227;46.752;23.576;2022-09-09T00:09:46;10.00;;;7.50;;
61356;SDS011;47227;46.752;23.576;2022-09-09T00:12:57;11.40;;;7.60;;
61356;SDS011;47227;46.752;23.576;2022-09-09T00:16:17;8.70;;;6.40;;
61356;SDS011;47227;46.752;23.576;2022-09-09T00:27:06;11.80;;;7.00;;
61356;SDS011;47227;46.752;23.576;2022-09-09T00:30:24;8.50;;;6.70;;
61356;SDS011;47227;46.752;23.576;2022-09-09T00:33:46;10.80;;;8.10;;
61356;SDS011;47227;46.752;23.576;2022-09-09T00:37:01;14.70;;;8.30;;
61356;SDS011;47227;46.752;23.576;2022-09-09T00:40:24;8.90;;;8.00;;
61356;SDS011;47227;46.752;23.576;2022-09-09T00:43:55;9.20;;;7.70;;
61356;SDS011;47227;46.752;23.576;2022-09-09T00:54:10;12.70;;;8.90;;
61356;SDS011;47227;46.752;23.576;2022-09-09T00:57:29;10.70;;;9.10;;
61356;SDS011;47227;46.752;23.576;2022-09-09T01:00:44;12.50;;;9.80;;
61356;SDS011;47227;46.752;23.576;2022-09-09T01:03:55;12.00;;;9.40;;
61356;SDS011;47227;46.752;23.576;2022-09-09T01:07:15;13.00;;;9.10;;
61356;SDS011;47227;46.752;23.576;2022-09-09T01:10:45;10.90;;;9.10;;
61356;SDS011;47227;46.752;23.576;2022-09-09T01:14:14;13.00;;;8.90;;
61356;SDS011;47227;46.752;23.576;2022-09-09T01:18:11;14.70;;;8.20;;
61356;SDS011;47227;46.752;23.576;2022-09-09T01:21:27;12.00;;;7.70;;
61356;SDS011;47227;46.752;23.576;2022-09-09T01:28:21;8.80;;;7.50;;
61356;SDS011;47227;46.752;23.576;2022-09-09T01:31:31;11.20;;;7.40;;
61356;SDS011;47227;46.752;23.576;2022-09-09T01:45:08;8.10;;;7.30;;
61356;SDS011;47227;46.752;23.576;2022-09-09T01:48:49;9.00;;;7.00;;
61356;SDS011;47227;46.752;23.576;2022-09-09T01:52:02;10.20;;;7.90;;
61356;SDS011;47227;46.752;23.576;2022-09-09T01:55:33;11.70;;;9.60;;
61356;SDS011;47227;46.752;23.576;2022-09-09T01:58:38;15.10;;;9.90;;
61356;SDS011;47227;46.752;23.576;2022-09-09T02:05:54;11.30;;;9.00;;
61356;SDS011;47227;46.752;23.576;2022-09-09T02:09:19;18.60;;;10.00;;
61356;SDS011;47227;46.752;23.576;2022-09-09T02:16:07;12.00;;;10.10;;
61356;SDS011;47227;46.752;23.576;2022-09-09T02:19:09;11.90;;;9.90;;
61356;SDS011;47227;46.752;23.576;2022-09-09T02:22:50;14.80;;;10.70;;
61356;SDS011;47227;46.752;23.576;2022-09-09T02:26:07;19.40;;;8.90;;
61356;SDS011;47227;46.752;23.576;2022-09-09T02:29:24;13.80;;;8.20;;
61356;SDS011;47227;46.752;23.576;2022-09-09T02:36:19;17.10;;;8.00;;
61356;SDS011;47227;46.752;23.576;2022-09-09T02:39:32;8.30;;;6.40;;
61356;SDS011;47227;46.752;23.576;2022-09-09T02:42:43;7.70;;;6.70;;
61356;SDS011;47227;46.752;23.576;2022-09-09T02:50:04;8.00;;;7.10;;
61356;SDS011;47227;46.752;23.576;2022-09-09T02:53:12;10.20;;;8.10;;
61356;SDS011;47227;46.752;23.576;2022-09-09T02:56:29;11.90;;;8.80;;
61356;SDS011;47227;46.752;23.576;2022-09-09T02:59:35;10.10;;;9.10;;
61356;SDS011;47227;46.752;23.576;2022-09-09T03:02:33;14.10;;;9.30;;
61356;SDS011;47227;46.752;23.576;2022-09-09T03:05:49;11.20;;;8.60;;
61356;SDS011;47227;46.752;23.576;2022-09-09T03:09:36;9.90;;;8.90;;
61356;SDS011;47227;46.752;23.576;2022-09-09T03:13:00;14.50;;;9.30;;
61356;SDS011;47227;46.752;23.576;2022-09-09T03:16:22;9.50;;;8.60;;
61356;SDS011;47227;46.752;23.576;2022-09-09T03:20:05;9.20;;;8.30;;
61356;SDS011;47227;46.752;23.576;2022-09-09T03:23:19;10.80;;;8.50;;
61356;SDS011;47227;46.752;23.576;2022-09-09T03:30:22;13.10;;;9.70;;
61356;SDS011;47227;46.752;23.576;2022-09-09T03:33:39;13.10;;;9.30;;
61356;SDS011;47227;46.752;23.576;2022-09-09T03:37:38;9.50;;;8.20;;
61356;SDS011;47227;46.752;23.576;2022-09-09T03:41:09;10.60;;;8.70;;
61356;SDS011;47227;46.752;23.576;2022-09-09T03:44:32;11.70;;;8.80;;
61356;SDS011;47227;46.752;23.576;2022-09-09T03:48:16;10.90;;;8.40;;
61356;SDS011;47227;46.752;23.576;2022-09-09T03:51:26;13.20;;;8.30;;
61356;SDS011;47227;46.752;23.576;2022-09-09T03:54:58;13.30;;;10.00;;
61356;SDS011;47227;46.752;23.576;2022-09-09T03:58:13;10.60;;;9.50;;
61356;SDS011;47227;46.752;23.576;2022-09-09T04:01:54;11.60;;;10.50;;
61356;SDS011;47227;46.752;23.576;2022-09-09T04:05:48;11.80;;;10.50;;
61356;SDS011;47227;46.752;23.576;2022-09-09T04:09:36;11.30;;;10.10;;
61356;SDS011;47227;46.752;23.576;2022-09-09T04:13:03;13.90;;;11.30;;
61356;SDS011;47227;46.752;23.576;2022-09-09T04:19:45;12.10;;;10.90;;
61356;SDS011;47227;46.752;23.576;2022-09-09T04:23:01;13.40;;;11.70;;
61356;SDS011;47227;46.752;23.576;2022-09-09T04:26:13;16.00;;;11.80;;
61356;SDS011;47227;46.752;23.576;2022-09-09T04:29:26;12.90;;;11.30;;
61356;SDS011;47227;46.752;23.576;2022-09-09T04:32:50;13.80;;;10.80;;
61356;SDS011;47227;46.752;23.576;2022-09-09T04:36:09;12.40;;;10.80;;
61356;SDS011;47227;46.752;23.576;2022-09-09T04:39:21;11.80;;;10.60;;
61356;SDS011;47227;46.752;23.576;2022-09-09T04:42:48;11.20;;;10.00;;
61356;SDS011;47227;46.752;23.576;2022-09-09T04:46:00;10.70;;;9.50;;
61356;SDS011;47227;46.752;23.576;2022-09-09T04:49:14;11.60;;;10.40;;
61356;SDS011;47227;46.752;23.576;2022-09-09T04:52:37;14.40;;;9.70;;
61356;SDS011;47227;46.752;23.576;2022-09-09T04:56:11;9.80;;;8.60;;
61356;SDS011;47227;46.752;23.576;2022-09-09T04:59:21;10.10;;;8.90;;
61356;SDS011;47227;46.752;23.576;2022-09-09T05:03:10;9.70;;;8.70;;
61356;SDS011;47227;46.752;23.576;2022-09-09T05:06:08;13.50;;;10.10;;
61356;SDS011;47227;46.752;23.576;2022-09-09T05:09:46;15.30;;;10.60;;
61356;SDS011;47227;46.752;23.576;2022-09-09T05:13:03;15.60;;;11.60;;
61356;SDS011;47227;46.752;23.576;2022-09-09T05:16:12;14.70;;;12.00;;
61356;SDS011;47227;46.752;23.576;2022-09-09T05:19:28;16.60;;;12.60;;
61356;SDS011;47227;46.752;23.576;2022-09-09T05:22:42;14.50;;;11.30;;
61356;SDS011;47227;46.752;23.576;2022-09-09T05:25:52;12.80;;;11.30;;
61356;SDS011;47227;46.752;23.576;2022-09-09T05:28:59;15.20;;;12.30;;
61356;SDS011;47227;46.752;23.576;2022-09-09T05:32:17;19.10;;;13.40;;
61356;SDS011;47227;46.752;23.576;2022-09-09T05:35:47;21.10;;;13.10;;
61356;SDS011;47227;46.752;23.576;2022-09-09T05:39:02;21.10;;;12.70;;
61356;SDS011;47227;46.752;23.576;2022-09-09T05:42:11;17.70;;;13.60;;
61356;SDS011;47227;46.752;23.576;2022-09-09T05:45:21;12.80;;;11.30;;
61356;SDS011;47227;46.752;23.576;2022-09-09T05:48:47;15.40;;;11.70;;
61356;SDS011;47227;46.752;23.576;2022-09-09T05:52:04;17.90;;;12.00;;
61356;SDS011;47227;46.752;23.576;2022-09-09T05:55:28;17.50;;;10.30;;
61356;SDS011;47227;46.752;23.576;2022-09-09T05:57:56;14.20;;;11.50;;
61356;SDS011;47227;46.752;23.576;2022-09-09T06:00:25;20.20;;;12.40;;
61356;SDS011;47227;46.752;23.576;2022-09-09T06:02:53;13.80;;;12.40;;
61356;SDS011;47227;46.752;23.576;2022-09-09T06:06:56;17.30;;;13.10;;
61356;SDS011;47227;46.752;23.576;2022-09-09T06:10:47;29.30;;;17.20;;
61356;SDS011;47227;46.752;23.576;2022-09-09T06:14:15;16.00;;;11.90;;
61356;SDS011;47227;46.752;23.576;2022-09-09T06:17:53;15.20;;;11.60;;
61356;SDS011;47227;46.752;23.576;2022-09-09T06:21:33;16.40;;;12.30;;
61356;SDS011;47227;46.752;23.576;2022-09-09T06:24:44;13.10;;;11.80;;
61356;SDS011;47227;46.752;23.576;2022-09-09T06:31:44;14.60;;;11.60;;
61356;SDS011;47227;46.752;23.576;2022-09-09T06:34:45;17.10;;;12.50;;
61356;SDS011;47227;46.752;23.576;2022-09-09T06:41:39;17.70;;;14.30;;
61356;SDS011;47227;46.752;23.576;2022-09-09T06:44:50;23.50;;;15.40;;
61356;SDS011;47227;46.752;23.576;2022-09-09T06:56:42;26.60;;;18.40;;
61356;SDS011;47227;46.752;23.576;2022-09-09T06:59:16;26.60;;;18.10;;
61356;SDS011;47227;46.752;23.576;2022-09-09T07:01:49;25.20;;;18.10;;
61356;SDS011;47227;46.752;23.576;2022-09-09T07:04:23;20.70;;;16.80;;
61356;SDS011;47227;46.752;23.576;2022-09-09T07:06:54;20.50;;;17.00;;
61356;SDS011;47227;46.752;23.576;2022-09-09T07:09:26;23.60;;;18.70;;
61356;SDS011;47227;46.752;23.576;2022-09-09T07:11:57;22.10;;;16.90;;
61356;SDS011;47227;46.752;23.576;2022-09-09T07:15:31;19.10;;;15.30;;
61356;SDS011;47227;46.752;23.576;2022-09-09T07:18:35;20.90;;;15.80;;
61356;SDS011;47227;46.752;23.576;2022-09-09T07:21:55;18.20;;;16.30;;
61356;SDS011;47227;46.752;23.576;2022-09-09T07:25:25;18.40;;;14.50;;
61356;SDS011;47227;46.752;23.576;2022-09-09T07:28:39;17.70;;;14.00;;
61356;SDS011;47227;46.752;23.576;2022-09-09T07:32:14;16.50;;;14.50;;
61356;SDS011;47227;46.752;23.576;2022-09-09T07:35:31;15.60;;;12.60;;
61356;SDS011;47227;46.752;23.576;2022-09-09T07:38:44;15.10;;;13.30;;
61356;SDS011;47227;46.752;23.576;2022-09-09T07:41:28;13.30;;;11.90;;
61356;SDS011;47227;46.752;23.576;2022-09-09T07:44:46;15.30;;;12.50;;
61356;SDS011;47227;46.752;23.576;2022-09-09T07:48:13;14.10;;;11.90;;
61356;SDS011;47227;46.752;23.576;2022-09-09T07:51:51;18.70;;;13.00;;
61356;SDS011;47227;46.752;23.576;2022-09-09T07:55:37;15.60;;;12.40;;
61356;SDS011;47227;46.752;23.576;2022-09-09T08:12:09;13.00;;;11.70;;
61356;SDS011;47227;46.752;23.576;2022-09-09T08:16:05;12.90;;;11.60;;
61356;SDS011;47227;46.752;23.576;2022-09-09T08:23:09;10.40;;;9.50;;
61356;SDS011;47227;46.752;23.576;2022-09-09T08:30:39;9.80;;;8.20;;
61356;SDS011;47227;46.752;23.576;2022-09-09T08:54:49;9.90;;;7.20;;
61356;SDS011;47227;46.752;23.576;2022-09-09T08:58:14;11.00;;;7.40;;
61356;SDS011;47227;46.752;23.576;2022-09-09T09:01:33;14.60;;;8.00;;
61356;SDS011;47227;46.752;23.576;2022-09-09T09:05:23;13.80;;;8.50;;
61356;SDS011;47227;46.752;23.576;2022-09-09T09:12:59;10.00;;;8.00;;
61356;SDS011;47227;46.752;23.576;2022-09-09T09:19:42;16.10;;;8.40;;
61356;SDS011;47227;46.752;23.576;2022-09-09T09:36:40;9.80;;;8.80;;
61356;SDS011;47227;46.752;23.576;2022-09-09T09:39:43;10.50;;;8.70;;
61356;SDS011;47227;46.752;23.576;2022-09-09T09:43:19;12.60;;;10.40;;
61356;SDS011;47227;46.752;23.576;2022-09-09T09:46:47;9.50;;;8.30;;
61356;SDS011;47227;46.752;23.576;2022-09-09T09:53:25;13.40;;;8.60;;
61356;SDS011;47227;46.752;23.576;2022-09-09T09:56:40;13.20;;;7.60;;
61356;SDS011;47227;46.752;23.576;2022-09-09T10:03:49;9.00;;;8.20;;
61356;SDS011;47227;46.752;23.576;2022-09-09T10:07:23;10.00;;;8.10;;
61356;SDS011;47227;46.752;23.576;2022-09-09T10:11:04;8.30;;;7.50;;
61356;SDS011;47227;46.752;23.576;2022-09-09T10:14:40;14.40;;;9.00;;
61356;SDS011;47227;46.752;23.576;2022-09-09T10:21:55;10.50;;;9.50;;
61356;SDS011;47227;46.752;23.576;2022-09-09T10:25:01;10.30;;;9.30;;
61356;SDS011;47227;46.752;23.576;2022-09-09T10:28:14;12.70;;;9.30;;
61356;SDS011;47227;46.752;23.576;2022-09-09T10:31:40;14.20;;;9.40;;
61356;SDS011;47227;46.752;23.576;2022-09-09T10:34:45;10.80;;;9.70;;
61356;SDS011;47227;46.752;23.576;2022-09-09T10:37:30;12.90;;;9.70;;
61356;SDS011;47227;46.752;23.576;2022-09-09T10:40:24;12.80;;;9.60;;
61356;SDS011;47227;46.752;23.576;2022-09-09T10:49:19;12.00;;;10.10;;
61356;SDS011;47227;46.752;23.576;2022-09-09T10:52:15;16.10;;;10.20;;
61356;SDS011;47227;46.752;23.576;2022-09-09T10:57:55;23.60;;;11.20;;
61356;SDS011;47227;46.752;23.576;2022-09-09T11:00:42;12.30;;;9.90;;
61356;SDS011;47227;46.752;23.576;2022-09-09T11:10:55;17.80;;;10.80;;
61356;SDS011;47227;46.752;23.576;2022-09-09T11:13:46;16.50;;;10.40;;
61356;SDS011;47227;46.752;23.576;2022-09-09T11:16:29;16.90;;;11.00;;
61356;SDS011;47227;46.752;23.576;2022-09-09T11:19:16;13.60;;;11.10;;
61356;SDS011;47227;46.752;23.576;2022-09-09T11:22:15;11.60;;;9.60;;
61356;SDS011;47227;46.752;23.576;2022-09-09T11:25:28;15.20;;;10.60;;
61356;SDS011;47227;46.752;23.576;2022-09-09T11:29:01;11.40;;;10.20;;
61356;SDS011;47227;46.752;23.576;2022-09-09T11:32:21;13.70;;;10.30;;
61356;SDS011;47227;46.752;23.576;2022-09-09T11:35:58;19.80;;;11.50;;
61356;SDS011;47227;46.752;23.576;2022-09-09T11:39:46;18.50;;;10.60;;
61356;SDS011;47227;46.752;23.576;2022-09-09T12:00:39;16.70;;;9.90;;
61356;SDS011;47227;46.752;23.576;2022-09-09T12:04:13;12.70;;;9.70;;
61356;SDS011;47227;46.752;23.576;2022-09-09T12:07:24;14.50;;;9.50;;
61356;SDS011;47227;46.752;23.576;2022-09-09T12:13:20;18.00;;;8.50;;
61356;SDS011;47227;46.752;23.576;2022-09-09T12:19:20;13.30;;;8.00;;
61356;SDS011;47227;46.752;23.576;2022-09-09T12:23:08;19.50;;;8.20;;
61356;SDS011;47227;46.752;23.576;2022-09-09T12:39:45;8.20;;;6.50;;
61356;SDS011;47227;46.752;23.576;2022-09-09T12:58:30;7.10;;;6.50;;
61356;SDS011;47227;46.752;23.576;2022-09-09T13:01:45;10.90;;;6.40;;
61356;SDS011;47227;46.752;23.576;2022-09-09T13:05:19;6.30;;;5.70;;
61356;SDS011;47227;46.752;23.576;2022-09-09T13:12:55;16.20;;;8.70;;
61356;SDS011;47227;46.752;23.576;2022-09-09T13:15:33;8.00;;;6.30;;
61356;SDS011;47227;46.752;23.576;2022-09-09T13:18:45;8.20;;;5.70;;
61356;SDS011;47227;46.752;23.576;2022-09-09T13:26:00;6.10;;;5.30;;
61356;SDS011;47227;46.752;23.576;2022-09-09T13:29:54;7.80;;;5.70;;
61356;SDS011;47227;46.752;23.576;2022-09-09T13:33:54;8.90;;;6.00;;
61356;SDS011;47227;46.752;23.576;2022-09-09T13:37:18;7.70;;;6.40;;
61356;SDS011;47227;46.752;23.576;2022-09-09T13:39:58;16.10;;;6.50;;
61356;SDS011;47227;46.752;23.576;2022-09-09T13:49:29;9.00;;;6.70;;
61356;SDS011;47227;46.752;23.576;2022-09-09T13:52:42;7.70;;;6.90;;
61356;SDS011;47227;46.752;23.576;2022-09-09T13:55:52;7.70;;;6.80;;
61356;SDS011;47227;46.752;23.576;2022-09-09T13:58:48;8.20;;;6.80;;
61356;SDS011;47227;46.752;23.576;2022-09-09T14:01:44;8.00;;;7.00;;
61356;SDS011;47227;46.752;23.576;2022-09-09T14:04:20;7.80;;;6.60;;
61356;SDS011;47227;46.752;23.576;2022-09-09T14:07:34;7.90;;;7.10;;
61356;SDS011;47227;46.752;23.576;2022-09-09T14:11:22;12.10;;;7.20;;
61356;SDS011;47227;46.752;23.576;2022-09-09T14:14:21;14.30;;;7.40;;
61356;SDS011;47227;46.752;23.576;2022-09-09T14:16:49;8.70;;;7.40;;
61356;SDS011;47227;46.752;23.576;2022-09-09T14:19:18;8.30;;;7.50;;
61356;SDS011;47227;46.752;23.576;2022-09-09T14:21:48;11.70;;;7.50;;
61356;SDS011;47227;46.752;23.576;2022-09-09T14:24:36;12.10;;;7.90;;
61356;SDS011;47227;46.752;23.576;2022-09-09T14:27:44;9.30;;;8.20;;
61356;SDS011;47227;46.752;23.576;2022-09-09T14:30:17;9.20;;;8.20;;
61356;SDS011;47227;46.752;23.576;2022-09-09T14:33:08;14.90;;;9.10;;
61356;SDS011;47227;46.752;23.576;2022-09-09T14:35:59;10.10;;;8.00;;
61356;SDS011;47227;46.752;23.576;2022-09-09T14:39:17;10.90;;;7.90;;
61356;SDS011;47227;46.752;23.576;2022-09-09T14:42:02;10.90;;;8.00;;
61356;SDS011;47227;46.752;23.576;2022-09-09T14:45:06;8.10;;;7.00;;
61356;SDS011;47227;46.752;23.576;2022-09-09T14:48:17;9.40;;;8.40;;
61356;SDS011;47227;46.752;23.576;2022-09-09T14:51:43;14.00;;;8.90;;
61356;SDS011;47227;46.752;23.576;2022-09-09T14:54:44;22.50;;;9.70;;
61356;SDS011;47227;46.752;23.576;2022-09-09T14:57:14;10.10;;;8.60;;
61356;SDS011;47227;46.752;23.576;2022-09-09T15:00:16;9.70;;;7.80;;
61356;SDS011;47227;46.752;23.576;2022-09-09T15:03:24;9.40;;;8.30;;
61356;SDS011;47227;46.752;23.576;2022-09-09T15:06:24;9.90;;;8.60;;
61356;SDS011;47227;46.752;23.576;2022-09-09T15:08:54;9.80;;;7.70;;
61356;SDS011;47227;46.752;23.576;2022-09-09T15:12:07;7.80;;;7.10;;
61356;SDS011;47227;46.752;23.576;2022-09-09T15:14:52;11.40;;;7.60;;
61356;SDS011;47227;46.752;23.576;2022-09-09T15:17:24;9.70;;;8.70;;
61356;SDS011;47227;46.752;23.576;2022-09-09T15:19:53;9.90;;;8.70;;
61356;SDS011;47227;46.752;23.576;2022-09-09T15:22:22;9.50;;;8.60;;
61356;SDS011;47227;46.752;23.576;2022-09-09T15:24:53;12.90;;;9.30;;
61356;SDS011;47227;46.752;23.576;2022-09-09T15:31:33;18.90;;;12.20;;
61356;SDS011;47227;46.752;23.576;2022-09-09T15:35:27;15.50;;;11.50;;
61356;SDS011;47227;46.752;23.576;2022-09-09T15:39:05;16.40;;;12.10;;
61356;SDS011;47227;46.752;23.576;2022-09-09T15:42:37;19.10;;;12.90;;
61356;SDS011;47227;46.752;23.576;2022-09-09T15:45:46;23.60;;;12.60;;
61356;SDS011;47227;46.752;23.576;2022-09-09T15:49:11;21.00;;;12.40;;
61356;SDS011;47227;46.752;23.576;2022-09-09T15:52:55;14.60;;;11.70;;
61356;SDS011;47227;46.752;23.576;2022-09-09T15:55:25;13.60;;;11.00;;
61356;SDS011;47227;46.752;23.576;2022-09-09T15:57:56;16.30;;;12.60;;
61356;SDS011;47227;46.752;23.576;2022-09-09T16:00:45;18.30;;;12.50;;
61356;SDS011;47227;46.752;23.576;2022-09-09T16:04:10;16.60;;;11.60;;
61356;SDS011;47227;46.752;23.576;2022-09-09T16:07:23;13.50;;;11.50;;
61356;SDS011;47227;46.752;23.576;2022-09-09T16:10:49;18.80;;;13.10;;
61356;SDS011;47227;46.752;23.576;2022-09-09T16:13:57;22.80;;;18.50;;
61356;SDS011;47227;46.752;23.576;2022-09-09T16:17:25;20.10;;;14.10;;
61356;SDS011;47227;46.752;23.576;2022-09-09T16:20:56;18.40;;;12.90;;
61356;SDS011;47227;46.752;23.576;2022-09-09T16:27:28;15.40;;;12.10;;
61356;SDS011;47227;46.752;23.576;2022-09-09T16:30:57;17.30;;;13.20;;
61356;SDS011;47227;46.752;23.576;2022-09-09T16:34:31;15.10;;;12.60;;
61356;SDS011;47227;46.752;23.576;2022-09-09T16:37:42;16.00;;;12.60;;
61356;SDS011;47227;46.752;23.576;2022-09-09T16:40:58;16.30;;;12.30;;
61356;SDS011;47227;46.752;23.576;2022-09-09T16:44:09;22.30;;;13.70;;
61356;SDS011;47227;46.752;23.576;2022-09-09T16:47:14;21.00;;;13.90;;
61356;SDS011;47227;46.752;23.576;2022-09-09T16:49:42;19.90;;;14.50;;
61356;SDS011;47227;46.752;23.576;2022-09-09T16:52:15;21.30;;;14.40;;
61356;SDS011;47227;46.752;23.576;2022-09-09T16:54:48;21.90;;;15.50;;
61356;SDS011;47227;46.752;23.576;2022-09-09T16:57:17;30.80;;;14.70;;
61356;SDS011;47227;46.752;23.576;2022-09-09T16:59:45;17.10;;;14.70;;
61356;SDS011;47227;46.752;23.576;2022-09-09T17:02:13;21.10;;;15.40;;
61356;SDS011;47227;46.752;23.576;2022-09-09T17:04:42;17.50;;;14.30;;
61356;SDS011;47227;46.752;23.576;2022-09-09T17:07:10;18.30;;;14.30;;
61356;SDS011;47227;46.752;23.576;2022-09-09T17:10:22;15.50;;;13.30;;
61356;SDS011;47227;46.752;23.576;2022-09-09T17:13:10;19.90;;;14.60;;
61356;SDS011;47227;46.752;23.576;2022-09-09T17:16:34;16.60;;;13.30;;
61356;SDS011;47227;46.752;23.576;2022-09-09T17:20:08;18.40;;;13.70;;
61356;SDS011;47227;46.752;23.576;2022-09-09T17:23:25;17.20;;;12.60;;
61356;SDS011;47227;46.752;23.576;2022-09-09T17:26:49;16.20;;;13.20;;
61356;SDS011;47227;46.752;23.576;2022-09-09T17:29:46;13.50;;;12.10;;
61356;SDS011;47227;46.752;23.576;2022-09-09T17:32:57;13.80;;;12.10;;
61356;SDS011;47227;46.752;23.576;2022-09-09T17:36:23;18.90;;;12.40;;
61356;SDS011;47227;46.752;23.576;2022-09-09T17:40:09;16.90;;;12.70;;
61356;SDS011;47227;46.752;23.576;2022-09-09T17:43:43;14.20;;;12.20;;
61356;SDS011;47227;46.752;23.576;2022-09-09T17:47:05;15.70;;;11.60;;
61356;SDS011;47227;46.752;23.576;2022-09-09T17:50:15;13.30;;;11.80;;
61356;SDS011;47227;46.752;23.576;2022-09-09T17:53:24;15.20;;;12.20;;
61356;SDS011;47227;46.752;23.576;2022-09-09T17:59:20;16.60;;;12.50;;
61356;SDS011;47227;46.752;23.576;2022-09-09T18:02:29;18.30;;;13.80;;
61356;SDS011;47227;46.752;23.576;2022-09-09T18:05:45;21.50;;;15.40;;
61356;SDS011;47227;46.752;23.576;2022-09-09T18:09:17;19.20;;;14.60;;
61356;SDS011;47227;46.752;23.576;2022-09-09T18:12:47;17.50;;;14.90;;
61356;SDS011;47227;46.752;23.576;2022-09-09T18:16:10;19.70;;;15.00;;
61356;SDS011;47227;46.752;23.576;2022-09-09T18:19:38;19.20;;;15.30;;
61356;SDS011;47227;46.752;23.576;2022-09-09T18:23:01;19.00;;;16.10;;
61356;SDS011;47227;46.752;23.576;2022-09-09T18:26:24;26.40;;;16.90;;
61356;SDS011;47227;46.752;23.576;2022-09-09T18:29:32;18.80;;;16.40;;
61356;SDS011;47227;46.752;23.576;2022-09-09T18:32:49;21.40;;;17.50;;
61356;SDS011;47227;46.752;23.576;2022-09-09T18:35:40;22.50;;;15.90;;
61356;SDS011;47227;46.752;23.576;2022-09-09T18:38:38;24.80;;;16.60;;
61356;SDS011;47227;46.752;23.576;2022-09-09T18:41:23;19.50;;;15.10;;
61356;SDS011;47227;46.752;23.576;2022-09-09T18:43:57;19.10;;;14.90;;
61356;SDS011;47227;46.752;23.576;2022-09-09T18:46:27;18.30;;;14.90;;
61356;SDS011;47227;46.752;23.576;2022-09-09T18:48:57;19.50;;;15.40;;
61356;SDS011;47227;46.752;23.576;2022-09-09T18:51:27;24.80;;;17.00;;
61356;SDS011;47227;46.752;23.576;2022-09-09T18:53:57;27.50;;;17.40;;
61356;SDS011;47227;46.752;23.576;2022-09-09T18:56:28;24.40;;;16.90;;
61356;SDS011;47227;46.752;23.576;2022-09-09T18:58:58;20.30;;;16.00;;
61356;SDS011;47227;46.752;23.576;2022-09-09T19:01:28;21.80;;;15.60;;
61356;SDS011;47227;46.752;23.576;2022-09-09T19:03:57;22.20;;;16.00;;
61356;SDS011;47227;46.752;23.576;2022-09-09T19:06:26;18.80;;;14.50;;
61356;SDS011;47227;46.752;23.576;2022-09-09T19:08:57;18.50;;;14.90;;
61356;SDS011;47227;46.752;23.576;2022-09-09T19:11:30;21.10;;;14.80;;
61356;SDS011;47227;46.752;23.576;2022-09-09T19:14:01;21.80;;;14.40;;
61356;SDS011;47227;46.752;23.576;2022-09-09T19:16:32;17.90;;;14.00;;
61356;SDS011;47227;46.752;23.576;2022-09-09T19:19:03;19.80;;;14.80;;
61356;SDS011;47227;46.752;23.576;2022-09-09T19:21:34;18.40;;;14.40;;
61356;SDS011;47227;46.752;23.576;2022-09-09T19:24:05;22.10;;;15.60;;
61356;SDS011;47227;46.752;23.576;2022-09-09T19:26:39;20.40;;;15.60;;
61356;SDS011;47227;46.752;23.576;2022-09-09T19:29:12;19.60;;;15.80;;
61356;SDS011;47227;46.752;23.576;2022-09-09T19:31:43;20.70;;;15.50;;
61356;SDS011;47227;46.752;23.576;2022-09-09T19:34:33;21.80;;;14.80;;
61356;SDS011;47227;46.752;23.576;2022-09-09T19:37:01;22.80;;;16.00;;
61356;SDS011;47227;46.752;23.576;2022-09-09T19:39:29;23.60;;;17.40;;
61356;SDS011;47227;46.752;23.576;2022-09-09T19:41:59;24.50;;;18.90;;
61356;SDS011;47227;46.752;23.576;2022-09-09T19:44:27;31.10;;;20.30;;
61356;SDS011;47227;46.752;23.576;2022-09-09T19:46:55;25.30;;;18.60;;
61356;SDS011;47227;46.752;23.576;2022-09-09T19:49:25;26.80;;;19.90;;
61356;SDS011;47227;46.752;23.576;2022-09-09T19:51:53;28.40;;;19.60;;
61356;SDS011;47227;46.752;23.576;2022-09-09T19:54:22;25.60;;;18.10;;
61356;SDS011;47227;46.752;23.576;2022-09-09T19:56:50;25.10;;;19.20;;
61356;SDS011;47227;46.752;23.576;2022-09-09T19:59:18;29.30;;;19.60;;
61356;SDS011;47227;46.752;23.576;2022-09-09T20:01:46;26.00;;;19.80;;
61356;SDS011;47227;46.752;23.576;2022-09-09T20:04:14;27.90;;;20.00;;
61356;SDS011;47227;46.752;23.576;2022-09-09T20:06:43;26.60;;;20.10;;
61356;SDS011;47227;46.752;23.576;2022-09-09T20:09:13;22.70;;;18.10;;
61356;SDS011;47227;46.752;23.576;2022-09-09T20:11:43;30.10;;;18.40;;
61356;SDS011;47227;46.752;23.576;2022-09-09T20:14:13;25.30;;;19.20;;
61356;SDS011;47227;46.752;23.576;2022-09-09T20:16:42;25.60;;;19.60;;
61356;SDS011;47227;46.752;23.576;2022-09-09T20:19:12;27.30;;;19.60;;
61356;SDS011;47227;46.752;23.576;2022-09-09T20:21:44;26.50;;;18.50;;
61356;SDS011;47227;46.752;23.576;2022-09-09T20:24:19;29.20;;;19.60;;
61356;SDS011;47227;46.752;23.576;2022-09-09T20:26:50;29.30;;;20.20;;
61356;SDS011;47227;46.752;23.576;2022-09-09T20:29:18;34.80;;;20.20;;
61356;SDS011;47227;46.752;23.576;2022-09-09T20:31:47;25.80;;;18.80;;
61356;SDS011;47227;46.752;23.576;2022-09-09T20:34:16;29.20;;;18.90;;
61356;SDS011;47227;46.752;23.576;2022-09-09T20:36:48;46.40;;;20.00;;
61356;SDS011;47227;46.752;23.576;2022-09-09T20:39:17;40.60;;;18.80;;
61356;SDS011;47227;46.752;23.576;2022-09-09T20:42:47;58.30;;;18.20;;
61356;SDS011;47227;46.752;23.576;2022-09-09T20:46:04;51.50;;;19.00;;
61356;SDS011;47227;46.752;23.576;2022-09-09T20:53:24;26.20;;;18.70;;
61356;SDS011;47227;46.752;23.576;2022-09-09T20:56:56;38.30;;;21.20;;
61356;SDS011;47227;46.752;23.576;2022-09-09T21:03:22;33.50;;;21.70;;
61356;SDS011;47227;46.752;23.576;2022-09-09T21:05:50;31.40;;;23.50;;
61356;SDS011;47227;46.752;23.576;2022-09-09T21:08:18;35.90;;;23.80;;
61356;SDS011;47227;46.752;23.576;2022-09-09T21:10:46;29.10;;;21.10;;
61356;SDS011;47227;46.752;23.576;2022-09-09T21:13:14;28.00;;;19.80;;
61356;SDS011;47227;46.752;23.576;2022-09-09T21:15:44;24.70;;;20.20;;
61356;SDS011;47227;46.752;23.576;2022-09-09T21:18:12;33.00;;;20.30;;
61356;SDS011;47227;46.752;23.576;2022-09-09T21:20:41;32.20;;;19.80;;
61356;SDS011;47227;46.752;23.576;2022-09-09T21:23:10;30.40;;;18.80;;
61356;SDS011;47227;46.752;23.576;2022-09-09T21:25:39;31.30;;;19.40;;
61356;SDS011;47227;46.752;23.576;2022-09-09T21:28:08;29.90;;;19.60;;
61356;SDS011;47227;46.752;23.576;2022-09-09T21:30:37;33.20;;;20.00;;
61356;SDS011;47227;46.752;23.576;2022-09-09T21:33:15;29.00;;;19.10;;
61356;SDS011;47227;46.752;23.576;2022-09-09T21:39:52;25.60;;;18.60;;
61356;SDS011;47227;46.752;23.576;2022-09-09T21:43:33;25.40;;;19.30;;
61356;SDS011;47227;46.752;23.576;2022-09-09T21:47:19;27.70;;;19.10;;
61356;SDS011;47227;46.752;23.576;2022-09-09T21:50:37;36.10;;;18.50;;
61356;SDS011;47227;46.752;23.576;2022-09-09T21:53:56;41.20;;;19.00;;
61356;SDS011;47227;46.752;23.576;2022-09-09T22:03:22;85.10;;;18.60;;
61356;SDS011;47227;46.752;23.576;2022-09-09T22:06:39;83.90;;;18.30;;
61356;SDS011;47227;46.752;23.576;2022-09-09T22:10:33;29.30;;;17.50;;
61356;SDS011;47227;46.752;23.576;2022-09-09T22:14:00;33.90;;;15.80;;